Terminal Aerodrome Forecast
Issued by NWS Glasgow, MT

Home | Current Version | Previous Version | Text Only | Print | Product List | Glossary On
Versions: 1 2 3 4 5 6 7 8 9 10 11 12 13
481
FTUS45 KGGW 201723
TAFGGW
TAF
KGGW 201723Z 2018/2118 31025G35KT P6SM BKN100
     FM210200 33015G24KT P6SM BKN080
     FM210800 33012G19KT P6SM SCT100
     FM211200 33008KT P6SM FEW250
     FM211500 VRB05KT P6SM FEW060=

USA.gov is the U.S. government's official web portal to all federal, state and local government web resources and services.